Terminal Aerodrome Forecast
Issued by NWS Binghamton, NY

Home | Current Version | Previous Version | Text Only | Print | Product List | Glossary On
Versions: 1 2 3 4 5 6 7 8 9 10 11 12 13 14 15 16 17 18 19
000
FTUS41 KBGM 300538
TAFBGM
TAF
KBGM 300538Z 3006/0106 09009KT P6SM -RA OVC110
     FM301300 09005KT P6SM -RA BKN040 OVC110
      TEMPO 3013/3015 OVC025
     FM301500 08010KT 6SM -RA OVC025
      TEMPO 3015/3019 3SM -RA OVC015
     FM301900 09010KT P6SM -RA OVC011
     FM010100 09009KT P6SM OVC008=

USA.gov is the U.S. government's official web portal to all federal, state and local government web resources and services.